METAR Data

Data at: 2202 UTC 01 Dec 2021

METAR for:CYFC (Fredericton Intl, NB, CA)
Text:CYFC 012100Z AUTO 00000KT 9SM CLR M03/M04 A3000 RMK SLP161
Temperature: -3.0°C ( 27°F)
Dewpoint: -4.0°C ( 25°F) [RH = 93%]
Pressure (altimeter):30.00 inches Hg (1016.0 mb) [Sea level pressure: 1016.1 mb]
Winds:calm
Visibility: 9 sm ( 14 km)
Ceiling:at least 12,000 feet AGL
Clouds:sky clear below 12,000 feet AGL